Time;durP1;ratioP1;P1;durP2;ratioP2;P2;SDS_P1;SDS_P2;PMS_P1;PMS_P2;Temp;Humidity;BMP_temperature;BMP_pressure;BME280_temperature;BME280_humidity;BME280_pressure;Samples;Min_cycle;Max_cycle;Signal;HPM_P1;HPM_P2
2022/04/09 00:01:52;;;;;;;;;;;;;;;5.00;100.00;97487.72;5009452;28;19967;-37
2022/04/09 00:04:17;;;;;;;;;;;;;;;4.85;100.00;97498.44;5008493;28;19929;-36
2022/04/09 00:06:43;;;;;;;;;;;;;;;4.95;100.00;97499.81;5008986;28;19924;-36
2022/04/09 00:09:08;;;;;;;;;;;;;;;4.62;100.00;97509.38;5010461;28;19924;-37
2022/04/09 00:11:33;;;;;;;;;;;;;;;4.67;100.00;97510.06;5010538;28;19913;-37
2022/04/09 00:13:58;;;;;;;;;;;;;;;4.97;100.00;97507.38;5010432;28;19949;-37
2022/04/09 00:16:24;;;;;;;;;;;;;;;4.95;100.00;97515.09;5008536;28;19932;-36
2022/04/09 00:18:49;;;;;;;;;;;;;;;5.02;100.00;97520.84;5003926;28;19932;-37
2022/04/09 00:21:14;;;;;;;;;;;;;;;4.95;100.00;97516.81;4997059;28;19929;-37
2022/04/09 00:23:40;;;;;;;;;;;;;;;4.73;100.00;97529.44;5010776;28;19925;-36
2022/04/09 00:26:05;;;;;;;;;;;;;;;4.60;100.00;97532.38;5010281;28;19924;-36
2022/04/09 00:28:30;;;;;;;;;;;;;;;4.86;100.00;97535.81;5001541;28;19922;-37
2022/04/09 00:30:55;;;;;;;;;;;;;;;4.57;100.00;97547.75;5008589;28;20286;-37
2022/04/09 00:33:21;;;;;;;;;;;;;;;4.78;100.00;97547.97;5010759;28;20486;-37
2022/04/09 00:35:47;;;;;;;;;;;;;;;4.84;100.00;97552.06;5011124;28;20274;-36
2022/04/09 00:38:12;;;;;;;;;;;;;;;4.95;100.00;97560.16;5010323;28;19997;-36
2022/04/09 00:40:37;;;;;;;;;;;;;;;4.87;100.00;97565.53;5011413;28;19953;-36
2022/04/09 00:43:03;;;;;;;;;;;;;;;5.06;100.00;97573.41;5004522;28;19914;-36
2022/04/09 00:45:28;;;;;;;;;;;;;;;4.94;100.00;97579.75;4999623;28;20012;-36
2022/04/09 00:47:53;;;;;;;;;;;;;;;4.79;100.00;97582.81;5009034;28;19917;-36
2022/04/09 00:50:18;;;;;;;;;;;;;;;4.76;100.00;97591.38;5002081;28;19917;-36
2022/04/09 00:52:47;;;;;;;;;;;;;;;4.92;100.00;97596.00;5010265;28;19925;-36
2022/04/09 00:55:13;;;;;;;;;;;;;;;5.10;100.00;97595.41;5005370;28;19917;-37
2022/04/09 00:57:40;;;;;;;;;;;;;;;4.64;100.00;97606.22;5010362;28;19974;-37
2022/04/09 01:00:09;;;;;;;;;;;;;;;4.74;100.00;97612.69;5006726;28;19917;-37
2022/04/09 01:02:36;;;;;;;;;;;;;;;5.11;100.00;97616.63;5010099;28;19940;-36
2022/04/09 01:05:01;;;;;;;;;;;;;;;5.13;100.00;97612.31;5002767;28;19928;-36
2022/04/09 01:07:26;;;;;;;;;;;;;;;4.89;100.00;97622.44;5004451;28;19917;-37
2022/04/09 01:09:51;;;;;;;;;;;;;;;4.68;100.00;97633.31;5006391;28;20016;-37
2022/04/09 01:12:17;;;;;;;;;;;;;;;4.92;100.00;97636.81;4998168;28;20520;-36
2022/04/09 01:14:42;;;;;;;;;;;;;;;5.10;100.00;97636.22;5005559;28;20397;-36
2022/04/09 01:17:07;;;;;;;;;;;;;;;4.79;100.00;97654.22;5002675;28;20004;-36
2022/04/09 01:19:32;;;;;;;;;;;;;;;5.00;100.00;97655.28;5004839;28;19999;-36
2022/04/09 01:22:01;;;;;;;;;;;;;;;4.98;100.00;97662.13;5009463;28;19976;-36
2022/04/09 01:24:26;;;;;;;;;;;;;;;5.03;100.00;97666.19;5009623;28;20028;-36
2022/04/09 01:26:51;;;;;;;;;;;;;;;5.02;100.00;97674.75;5010232;28;20008;-36
2022/04/09 01:29:16;;;;;;;;;;;;;;;4.70;100.00;97677.41;5001261;28;19913;-36
2022/04/09 01:31:42;;;;;;;;;;;;;;;4.80;100.00;97678.84;5006504;28;20016;-36
2022/04/09 01:34:07;;;;;;;;;;;;;;;5.22;100.00;97680.94;5007567;28;19945;-36
2022/04/09 01:36:32;;;;;;;;;;;;;;;5.29;100.00;97681.56;5010012;28;19985;-36
2022/04/09 01:38:57;;;;;;;;;;;;;;;4.90;100.00;97695.50;5001183;28;20295;-36
2022/04/09 01:41:23;;;;;;;;;;;;;;;4.68;100.00;97684.31;5006411;28;20417;-36
2022/04/09 01:43:48;;;;;;;;;;;;;;;4.74;100.00;97699.41;5008317;28;19921;-36
2022/04/09 01:46:13;;;;;;;;;;;;;;;4.72;100.00;97703.72;5009526;28;19913;-36
2022/04/09 01:48:41;;;;;;;;;;;;;;;5.12;100.00;97707.63;5010054;28;20008;-36
2022/04/09 01:51:06;;;;;;;;;;;;;;;4.94;100.00;97704.75;5009543;28;19921;-37
2022/04/09 01:53:33;;;;;;;;;;;;;;;5.15;100.00;97710.09;5004318;28;19921;-36
2022/04/09 01:55:58;;;;;;;;;;;;;;;4.86;100.00;97714.38;5007974;28;19917;-36
2022/04/09 01:58:24;;;;;;;;;;;;;;;4.88;100.00;97722.81;5007603;28;19928;-36
2022/04/09 02:00:49;;;;;;;;;;;;;;;5.00;100.00;97727.53;5009157;28;20445;-36
2022/04/09 02:03:14;;;;;;;;;;;;;;;4.88;100.00;97733.00;5005092;28;20378;-37
2022/04/09 02:05:39;;;;;;;;;;;;;;;4.91;100.00;97732.09;5007554;28;19955;-36
2022/04/09 02:08:05;;;;;;;;;;;;;;;4.97;100.00;97736.97;4992857;28;19920;-37
2022/04/09 02:10:31;;;;;;;;;;;;;;;4.96;100.00;97737.88;5007653;28;19972;-36
2022/04/09 02:12:57;;;;;;;;;;;;;;;5.09;100.00;97740.91;4998675;28;20012;-36
2022/04/09 02:15:22;;;;;;;;;;;;;;;5.07;100.00;97747.78;5006852;28;20004;-36
2022/04/09 02:17:47;;;;;;;;;;;;;;;4.96;100.00;97751.47;5007160;28;19983;-37
2022/04/09 02:20:13;;;;;;;;;;;;;;;5.06;100.00;97761.41;5002916;28;19917;-36
2022/04/09 02:22:39;;;;;;;;;;;;;;;5.14;100.00;97762.00;5003812;28;19956;-36
2022/04/09 02:25:05;;;;;;;;;;;;;;;5.02;100.00;97771.69;5007173;28;19926;-36
2022/04/09 02:27:30;;;;;;;;;;;;;;;4.85;100.00;97773.91;5002318;28;19922;-36
2022/04/09 02:29:56;;;;;;;;;;;;;;;4.98;100.00;97777.78;5009140;28;20429;-36
2022/04/09 02:32:21;;;;;;;;;;;;;;;5.02;100.00;97779.34;5002501;28;19925;-36
2022/04/09 02:34:46;;;;;;;;;;;;;;;4.87;100.00;97782.34;5008493;28;19917;-37
2022/04/09 02:37:11;;;;;;;;;;;;;;;5.00;100.00;97783.66;5008913;28;19927;-36
2022/04/09 02:39:37;;;;;;;;;;;;;;;5.33;100.00;97785.25;4994706;28;20450;-37
2022/04/09 02:42:02;;;;;;;;;;;;;;;4.89;100.00;97795.91;5004408;28;20405;-36
2022/04/09 02:44:28;;;;;;;;;;;;;;;4.68;100.00;97804.16;5004501;28;19952;-36
2022/04/09 02:46:53;;;;;;;;;;;;;;;4.74;100.00;97837.13;5009936;28;19924;-37
2022/04/09 02:49:20;;;;;;;;;;;;;;;4.78;100.00;97810.66;5009315;28;19971;-37
2022/04/09 02:51:45;;;;;;;;;;;;;;;4.96;100.00;97828.00;5010132;28;20028;-37
2022/04/09 02:54:15;;;;;;;;;;;;;;;4.96;100.00;97827.16;5007158;28;20029;-36
2022/04/09 02:56:41;;;;;;;;;;;;;;;5.12;100.00;97830.13;5006402;28;19921;-36
2022/04/09 02:59:08;;;;;;;;;;;;;;;5.09;100.00;97830.22;5007402;28;19972;-37
2022/04/09 03:01:33;;;;;;;;;;;;;;;4.90;100.00;97833.25;5006198;28;19926;-37
2022/04/09 03:03:58;;;;;;;;;;;;;;;4.55;100.00;97841.88;5007907;28;19924;-37
2022/04/09 03:06:24;;;;;;;;;;;;;;;4.99;100.00;97845.75;5010734;28;19986;-37
2022/04/09 03:08:49;;;;;;;;;;;;;;;5.03;100.00;97843.97;5000800;28;19921;-37
2022/04/09 03:11:14;;;;;;;;;;;;;;;4.86;100.00;97857.22;5008003;28;20013;-37
2022/04/09 03:13:39;;;;;;;;;;;;;;;5.06;100.00;97863.47;5011623;28;20444;-37
2022/04/09 03:16:04;;;;;;;;;;;;;;;4.99;100.00;97866.16;5009615;28;19917;-37
2022/04/09 03:18:30;;;;;;;;;;;;;;;5.14;100.00;97862.38;5008449;28;19918;-37
2022/04/09 03:20:55;;;;;;;;;;;;;;;4.73;100.00;97878.81;5011656;28;19924;-37
2022/04/09 03:23:20;;;;;;;;;;;;;;;4.84;100.00;97881.94;5008435;28;19920;-37
2022/04/09 03:25:46;;;;;;;;;;;;;;;4.69;100.00;97885.69;5011795;28;19922;-37
2022/04/09 03:28:11;;;;;;;;;;;;;;;4.66;100.00;97885.78;5011388;28;20012;-37
2022/04/09 03:30:36;;;;;;;;;;;;;;;4.71;100.00;97893.31;5002915;28;19924;-37
2022/04/09 03:33:02;;;;;;;;;;;;;;;4.60;100.00;97889.31;4998068;28;19924;-37
2022/04/09 03:35:28;;;;;;;;;;;;;;;4.68;100.00;97898.50;5003978;28;19921;-37
2022/04/09 03:37:53;;;;;;;;;;;;;;;4.74;100.00;97898.34;5008709;28;19983;-37
2022/04/09 03:40:18;;;;;;;;;;;;;;;4.70;100.00;97902.69;5011980;28;19961;-37
2022/04/09 03:42:43;;;;;;;;;;;;;;;4.73;100.00;97912.81;5011509;28;19913;-37
2022/04/09 03:45:09;;;;;;;;;;;;;;;4.44;100.00;97918.63;5001549;28;20018;-37
2022/04/09 03:47:34;;;;;;;;;;;;;;;4.97;100.00;97913.03;5010975;28;19921;-38
2022/04/09 03:50:01;;;;;;;;;;;;;;;4.93;100.00;97919.13;5009054;28;19924;-37
2022/04/09 03:52:26;;;;;;;;;;;;;;;5.03;100.00;97910.31;5006524;28;19921;-37
2022/04/09 03:54:51;;;;;;;;;;;;;;;5.23;100.00;97917.44;5011411;28;19936;-37
2022/04/09 03:57:17;;;;;;;;;;;;;;;5.14;100.00;97927.91;5010769;28;19918;-37
2022/04/09 03:59:43;;;;;;;;;;;;;;;4.91;100.00;97931.06;5009040;28;19921;-37
2022/04/09 04:02:08;;;;;;;;;;;;;;;4.89;100.00;97936.19;5001021;28;20216;-38
2022/04/09 04:04:35;;;;;;;;;;;;;;;4.59;100.00;97932.72;5006528;28;20012;-38
2022/04/09 04:07:00;;;;;;;;;;;;;;;4.51;100.00;97943.09;5002633;28;19921;-37
2022/04/09 04:09:25;;;;;;;;;;;;;;;4.77;100.00;97947.56;5011725;28;20711;-38
2022/04/09 04:11:50;;;;;;;;;;;;;;;4.58;100.00;97944.66;5010561;28;20318;-38
2022/04/09 04:14:15;;;;;;;;;;;;;;;4.69;100.00;97956.28;5011868;28;19963;-38
2022/04/09 04:16:41;;;;;;;;;;;;;;;4.39;100.00;97964.63;5007722;28;19917;-38
2022/04/09 04:19:06;;;;;;;;;;;;;;;4.58;96.69;97970.16;5004298;28;19917;-38
2022/04/09 04:21:31;;;;;;;;;;;;;;;4.55;94.78;97960.00;5007579;28;19980;-37
2022/04/09 04:23:56;;;;;;;;;;;;;;;4.64;92.37;97973.41;5001118;28;20489;-37
2022/04/09 04:26:22;;;;;;;;;;;;;;;4.40;94.36;97978.22;5008055;28;19928;-38
2022/04/09 04:28:48;;;;;;;;;;;;;;;4.91;89.89;97976.97;4998844;28;19914;-38
2022/04/09 04:31:16;;;;;;;;;;;;;;;4.43;92.28;97990.06;5002343;28;21359;-38
2022/04/09 04:33:41;;;;;;;;;;;;;;;4.37;89.54;97996.13;5010784;28;20022;-37
2022/04/09 04:36:06;;;;;;;;;;;;;;;4.48;86.51;97999.28;5002949;28;20357;-37
2022/04/09 04:38:32;;;;;;;;;;;;;;;4.40;86.98;98007.09;5008885;28;19922;-38
2022/04/09 04:40:57;;;;;;;;;;;;;;;4.18;84.25;98005.91;5010065;28;19917;-38
2022/04/09 04:43:22;;;;;;;;;;;;;;;4.34;83.70;98012.34;5008837;28;20331;-38
2022/04/09 04:45:47;;;;;;;;;;;;;;;4.34;82.79;98011.50;5006077;28;19928;-37
2022/04/09 04:48:13;;;;;;;;;;;;;;;4.40;83.34;98024.09;5007196;28;19928;-37
2022/04/09 04:50:38;;;;;;;;;;;;;;;4.22;85.05;98033.03;5002218;28;19921;-37
2022/04/09 04:53:03;;;;;;;;;;;;;;;4.37;82.49;98032.66;5008086;28;19918;-37
2022/04/09 04:55:28;;;;;;;;;;;;;;;4.35;82.64;98033.56;5009769;28;19960;-38
2022/04/09 04:57:55;;;;;;;;;;;;;;;4.50;80.54;98028.13;5001484;28;20469;-38
2022/04/09 05:00:21;;;;;;;;;;;;;;;4.34;83.40;98042.09;5008091;28;19918;-37
2022/04/09 05:02:46;;;;;;;;;;;;;;;4.52;84.00;98043.41;5003038;28;20008;-38
2022/04/09 05:05:12;;;;;;;;;;;;;;;4.74;84.26;98030.94;5006215;28;20016;-38
2022/04/09 05:07:38;;;;;;;;;;;;;;;4.58;87.04;98040.69;4997065;28;20362;-38
2022/04/09 05:10:04;;;;;;;;;;;;;;;4.31;88.32;98054.88;5005495;28;19956;-38
2022/04/09 05:12:29;;;;;;;;;;;;;;;4.40;87.54;98064.88;5002096;28;19922;-38
2022/04/09 05:14:55;;;;;;;;;;;;;;;4.44;86.76;98063.94;5009851;28;20012;-38
2022/04/09 05:17:20;;;;;;;;;;;;;;;4.43;86.86;98062.28;5009459;28;19956;-38
2022/04/09 05:19:45;;;;;;;;;;;;;;;4.55;86.15;98066.25;5009205;28;19917;-38
2022/04/09 05:22:10;;;;;;;;;;;;;;;4.47;87.46;98083.44;5008375;28;20555;-38
2022/04/09 05:24:35;;;;;;;;;;;;;;;4.31;85.52;98083.78;5005922;28;20557;-38
2022/04/09 05:27:01;;;;;;;;;;;;;;;4.35;82.68;98084.53;5008783;28;19917;-38
2022/04/09 05:29:26;;;;;;;;;;;;;;;4.57;80.74;98085.75;5007679;28;19979;-38
2022/04/09 05:31:51;;;;;;;;;;;;;;;4.84;80.90;98088.53;5005975;28;19921;-38
2022/04/09 05:34:16;;;;;;;;;;;;;;;4.78;85.43;98089.50;5006659;28;20412;-38
2022/04/09 05:36:42;;;;;;;;;;;;;;;4.56;86.76;98086.63;5008021;28;20325;-38
2022/04/09 05:39:07;;;;;;;;;;;;;;;4.81;86.17;98086.91;5009048;28;19917;-38
2022/04/09 05:41:32;;;;;;;;;;;;;;;4.57;88.35;98090.84;5008835;28;19953;-38
2022/04/09 05:43:58;;;;;;;;;;;;;;;4.38;87.98;98105.72;5005799;28;20073;-38
2022/04/09 05:46:24;;;;;;;;;;;;;;;4.46;90.20;98103.00;5000867;28;19928;-38
2022/04/09 05:48:49;;;;;;;;;;;;;;;4.60;89.07;98108.63;5005748;28;20007;-38
2022/04/09 05:51:14;;;;;;;;;;;;;;;4.76;89.59;98104.00;5009473;28;20048;-38
2022/04/09 05:53:39;;;;;;;;;;;;;;;4.66;92.09;98115.31;5008292;28;19988;-38
2022/04/09 05:56:05;;;;;;;;;;;;;;;4.68;92.73;98121.22;5009419;28;19936;-42
2022/04/09 05:58:31;;;;;;;;;;;;;;;4.67;94.40;98132.28;5009018;28;19924;-44
2022/04/09 06:00:58;;;;;;;;;;;;;;;4.76;91.92;98131.22;5007408;28;19918;-43
2022/04/09 06:03:23;;;;;;;;;;;;;;;5.02;90.82;98128.94;5002002;28;19926;-43
2022/04/09 06:05:48;;;;;;;;;;;;;;;4.90;93.42;98134.28;5006626;28;19932;-42
2022/04/09 06:08:14;;;;;;;;;;;;;;;5.03;94.71;98135.69;5003846;28;19917;-41
2022/04/09 06:10:39;;;;;;;;;;;;;;;4.86;98.48;98153.13;5002333;28;19917;-42
2022/04/09 06:13:04;;;;;;;;;;;;;;;5.16;95.38;98150.72;5004829;28;20450;-42
2022/04/09 06:15:29;;;;;;;;;;;;;;;4.97;97.11;98156.28;5004423;28;19918;-43
2022/04/09 06:17:55;;;;;;;;;;;;;;;5.06;97.54;98174.78;5005934;28;19928;-43
2022/04/09 06:20:20;;;;;;;;;;;;;;;4.44;99.43;98178.66;5003652;28;19957;-44
2022/04/09 06:22:45;;;;;;;;;;;;;;;4.74;93.28;98168.69;5002801;28;19972;-43
2022/04/09 06:25:10;;;;;;;;;;;;;;;4.80;90.54;98179.59;5008109;28;20277;-43
2022/04/09 06:27:39;;;;;;;;;;;;;;;4.97;88.93;98186.88;5006634;28;19991;-41
2022/04/09 06:30:05;;;;;;;;;;;;;;;4.59;92.93;98186.00;5002606;28;19917;-43
2022/04/09 06:32:30;;;;;;;;;;;;;;;4.57;92.10;98197.09;5008437;28;20024;-44
2022/04/09 06:34:56;;;;;;;;;;;;;;;4.71;91.57;98194.25;5003803;28;19958;-43
2022/04/09 06:37:21;;;;;;;;;;;;;;;4.97;94.31;98202.19;5002664;28;19920;-43
2022/04/09 06:39:46;;;;;;;;;;;;;;;5.08;96.43;98194.28;5006702;28;19917;-42
2022/04/09 06:42:11;;;;;;;;;;;;;;;5.11;98.54;98199.34;5007520;28;20008;-42
2022/04/09 06:44:37;;;;;;;;;;;;;;;5.40;99.37;98203.72;5007439;28;19918;-42
2022/04/09 06:47:02;;;;;;;;;;;;;;;5.06;100.00;98213.88;4999457;28;19921;-42
2022/04/09 06:49:27;;;;;;;;;;;;;;;5.51;100.00;98215.41;4995531;28;19949;-43
2022/04/09 06:51:52;;;;;;;;;;;;;;;5.15;100.00;98220.50;4998450;28;20479;-42
2022/04/09 06:54:18;;;;;;;;;;;;;;;5.24;100.00;98221.16;5007926;28;20016;-42
2022/04/09 06:56:44;;;;;;;;;;;;;;;5.29;100.00;98221.03;5001682;28;19945;-43
2022/04/09 06:59:09;;;;;;;;;;;;;;;5.37;100.00;98231.06;4996389;28;19921;-44
2022/04/09 07:01:34;;;;;;;;;;;;;;;4.91;100.00;98232.94;5008700;28;20396;-43
2022/04/09 07:04:00;;;;;;;;;;;;;;;5.17;100.00;98239.19;5006118;28;19921;-42
2022/04/09 07:06:26;;;;;;;;;;;;;;;5.30;100.00;98240.59;5004062;28;19972;-43
2022/04/09 07:08:51;;;;;;;;;;;;;;;5.32;100.00;98246.50;4998360;28;19960;-42
2022/04/09 07:11:16;;;;;;;;;;;;;;;5.40;100.00;98242.03;5001937;28;19924;-43
2022/04/09 07:13:41;;;;;;;;;;;;;;;5.70;100.00;98249.84;5005601;28;19929;-42
2022/04/09 07:16:07;;;;;;;;;;;;;;;5.62;100.00;98246.66;5005644;28;19918;-42
2022/04/09 07:18:32;;;;;;;;;;;;;;;5.41;100.00;98251.38;5007931;28;19922;-43
2022/04/09 07:20:57;;;;;;;;;;;;;;;5.88;100.00;98256.22;5007216;28;20021;-44
2022/04/09 07:23:23;;;;;;;;;;;;;;;5.57;100.00;98259.53;5001229;28;19921;-43
2022/04/09 07:25:48;;;;;;;;;;;;;;;5.62;100.00;98264.53;5005831;28;20048;-44
2022/04/09 07:28:13;;;;;;;;;;;;;;;5.83;100.00;98264.00;4995386;28;20023;-43
2022/04/09 07:30:38;;;;;;;;;;;;;;;6.16;100.00;98263.19;5000895;28;20398;-44
2022/04/09 07:33:04;;;;;;;;;;;;;;;6.16;100.00;98265.75;5012264;28;19917;-45
2022/04/09 07:35:29;;;;;;;;;;;;;;;6.16;100.00;98263.19;5011252;28;19928;-44
2022/04/09 07:37:55;;;;;;;;;;;;;;;5.77;100.00;98276.06;5008021;28;19914;-44
2022/04/09 07:40:24;;;;;;;;;;;;;;;5.98;100.00;98264.53;5011738;28;20327;-43
2022/04/09 07:42:49;;;;;;;;;;;;;;;6.57;100.00;98282.59;5006529;28;19964;-43
2022/04/09 07:45:15;;;;;;;;;;;;;;;6.35;100.00;98276.38;5011912;28;19925;-46
2022/04/09 07:47:40;;;;;;;;;;;;;;;6.68;100.00;98278.00;5002362;28;19917;-45
2022/04/09 07:50:07;;;;;;;;;;;;;;;6.51;100.00;98295.53;5004492;28;19964;-45
2022/04/09 07:52:32;;;;;;;;;;;;;;;6.92;100.00;98285.88;5005696;28;19917;-43
2022/04/09 07:54:57;;;;;;;;;;;;;;;6.78;100.00;98286.25;5007588;28;19975;-46
2022/04/09 07:57:26;;;;;;;;;;;;;;;6.25;100.00;98294.50;5002494;28;20303;-48
2022/04/09 07:59:53;;;;;;;;;;;;;;;6.38;100.00;98284.78;4996503;28;20325;-43
2022/04/09 08:02:18;;;;;;;;;;;;;;;6.11;100.00;98296.56;5007657;28;19925;-44
2022/04/09 08:04:44;;;;;;;;;;;;;;;5.93;100.00;98302.09;5011446;28;19921;-45
2022/04/09 08:07:09;;;;;;;;;;;;;;;5.48;100.00;98307.44;5008702;28;19926;-43
2022/04/09 08:09:35;;;;;;;;;;;;;;;5.42;100.00;98314.34;5009151;28;19924;-44
2022/04/09 08:12:00;;;;;;;;;;;;;;;5.59;100.00;98318.25;5011060;28;19954;-42
2022/04/09 08:14:25;;;;;;;;;;;;;;;5.81;100.00;98323.69;5011905;28;19952;-45
2022/04/09 08:16:50;;;;;;;;;;;;;;;6.04;100.00;98323.16;5010813;28;19963;-44
2022/04/09 08:19:16;;;;;;;;;;;;;;;6.53;100.00;98324.47;4999638;28;19921;-44
2022/04/09 08:21:41;;;;;;;;;;;;;;;6.09;100.00;98334.13;5008542;28;19922;-43
2022/04/09 08:24:06;;;;;;;;;;;;;;;5.67;100.00;98331.66;5004528;28;19914;-45
2022/04/09 08:26:31;;;;;;;;;;;;;;;6.69;100.00;98330.00;5011354;28;19925;-44
2022/04/09 08:28:57;;;;;;;;;;;;;;;6.57;100.00;98336.31;5011424;28;19924;-44
2022/04/09 08:31:22;;;;;;;;;;;;;;;6.73;100.00;98335.88;5011387;28;20643;-45
2022/04/09 08:33:47;;;;;;;;;;;;;;;7.38;100.00;98335.72;5011640;28;19914;-43
2022/04/09 08:36:13;;;;;;;;;;;;;;;7.12;100.00;98336.50;5011410;28;20349;-46
2022/04/09 08:38:39;;;;;;;;;;;;;;;6.90;100.00;98338.81;5009680;28;20329;-47
2022/04/09 08:41:04;;;;;;;;;;;;;;;7.03;100.00;98337.59;5010974;28;19917;-46
2022/04/09 08:43:30;;;;;;;;;;;;;;;7.57;100.00;98337.72;5001540;28;19992;-45
2022/04/09 08:45:55;;;;;;;;;;;;;;;7.06;100.00;98340.06;5010268;28;20394;-45
2022/04/09 08:48:21;;;;;;;;;;;;;;;7.43;100.00;98350.97;5005883;28;19928;-44
2022/04/09 08:50:46;;;;;;;;;;;;;;;7.09;100.00;98349.38;5006603;28;19924;-43
2022/04/09 08:53:11;;;;;;;;;;;;;;;6.65;100.00;98344.59;5010316;28;19913;-46
2022/04/09 08:55:36;;;;;;;;;;;;;;;6.72;100.00;98345.28;5010947;28;20464;-45
2022/04/09 08:58:02;;;;;;;;;;;;;;;6.92;100.00;98352.41;5010761;28;20393;-44
2022/04/09 09:00:27;;;;;;;;;;;;;;;6.78;100.00;98346.84;5010759;28;19920;-48
2022/04/09 09:02:53;;;;;;;;;;;;;;;6.62;100.00;98349.81;5009656;28;20423;-46
2022/04/09 09:05:29;;;;;;;;;;;;;;;6.38;100.00;98341.03;5006930;28;20290;-47
2022/04/09 09:07:55;;;;;;;;;;;;;;;6.15;100.00;98369.75;5005109;28;19925;-48
2022/04/09 09:10:21;;;;;;;;;;;;;;;6.96;100.00;98358.31;5010694;28;19917;-44
2022/04/09 09:12:56;;;;;;;;;;;;;;;7.39;100.00;98351.94;5005811;28;19923;-45
2022/04/09 09:15:21;;;;;;;;;;;;;;;7.01;100.00;98364.97;5004214;28;19928;-44
2022/04/09 09:17:47;;;;;;;;;;;;;;;6.76;100.00;98372.47;5005222;28;19917;-44
2022/04/09 09:20:13;;;;;;;;;;;;;;;6.95;100.00;98357.44;5000725;28;20280;-48
2022/04/09 09:22:39;;;;;;;;;;;;;;;7.63;100.00;98353.75;5002607;28;19918;-45
2022/04/09 09:25:05;;;;;;;;;;;;;;;6.95;100.00;98347.19;5001894;28;19927;-45
2022/04/09 09:27:31;;;;;;;;;;;;;;;7.60;100.00;98355.59;5008407;28;19924;-45
2022/04/09 09:29:56;;;;;;;;;;;;;;;7.24;100.00;98354.06;5008352;28;19921;-45
2022/04/09 09:32:25;;;;;;;;;;;;;;;7.93;100.00;98349.41;5000736;28;19922;-47
2022/04/09 09:34:54;;;;;;;;;;;;;;;8.48;100.00;98348.50;5004513;28;19917;-44
2022/04/09 09:37:20;;;;;;;;;;;;;;;8.74;100.00;98351.03;5006641;28;20000;-44
2022/04/09 09:39:45;;;;;;;;;;;;;;;8.62;100.00;98348.91;5004647;28;20442;-44
2022/04/09 09:42:12;;;;;;;;;;;;;;;8.35;100.00;98346.34;5004651;28;19976;-45
2022/04/09 09:44:44;;;;;;;;;;;;;;;7.76;100.00;98351.66;5007663;28;19929;-44
2022/04/09 09:47:09;;;;;;;;;;;;;;;7.94;100.00;98340.84;5005665;28;19921;-44
2022/04/09 09:49:38;;;;;;;;;;;;;;;8.00;100.00;98338.94;5010253;28;20301;-46
2022/04/09 09:52:05;;;;;;;;;;;;;;;8.18;100.00;98333.22;5009566;28;20439;-45
2022/04/09 09:54:30;;;;;;;;;;;;;;;8.06;100.00;98329.34;5008420;28;20295;-45
2022/04/09 09:56:55;;;;;;;;;;;;;;;8.31;100.00;98324.22;5010282;28;19929;-45
2022/04/09 09:59:21;;;;;;;;;;;;;;;8.43;100.00;98328.13;5004321;28;20467;-44
2022/04/09 10:01:51;;;;;;;;;;;;;;;9.39;100.00;98336.66;5001412;28;20648;-43
2022/04/09 10:04:17;;;;;;;;;;;;;;;8.35;100.00;98333.50;4998827;28;20067;-45
2022/04/09 10:06:42;;;;;;;;;;;;;;;8.48;100.00;98343.38;5009016;28;20457;-48
2022/04/09 10:09:08;;;;;;;;;;;;;;;8.54;100.00;98345.75;5005452;28;20309;-45
2022/04/09 10:11:34;;;;;;;;;;;;;;;8.56;100.00;98323.44;5000853;28;20005;-44
2022/04/09 10:13:59;;;;;;;;;;;;;;;7.99;100.00;98327.03;5000785;28;19940;-45
2022/04/09 10:16:27;;;;;;;;;;;;;;;7.77;100.00;98330.25;5008168;28;19918;-45
2022/04/09 10:18:52;;;;;;;;;;;;;;;7.89;100.00;98323.91;5007402;28;20274;-48
2022/04/09 10:21:17;;;;;;;;;;;;;;;7.41;100.00;98351.03;4986151;28;19925;-48
2022/04/09 10:23:42;;;;;;;;;;;;;;;7.36;100.00;98364.84;5007297;28;19914;-44
2022/04/09 10:26:08;;;;;;;;;;;;;;;5.15;100.00;98369.38;5007638;28;20051;-46
2022/04/09 10:28:35;;;;;;;;;;;;;;;4.62;100.00;98386.56;5002025;28;19924;-42
2022/04/09 10:31:00;;;;;;;;;;;;;;;4.92;100.00;98390.25;5005775;28;19925;-42
2022/04/09 10:33:28;;;;;;;;;;;;;;;5.02;100.00;98401.97;5007922;28;19917;-41
2022/04/09 10:35:55;;;;;;;;;;;;;;;5.14;100.00;98400.06;4999695;28;19929;-41
2022/04/09 10:38:22;;;;;;;;;;;;;;;5.27;100.00;98427.03;5000294;28;19918;-42
2022/04/09 10:40:50;;;;;;;;;;;;;;;4.09;100.00;98474.94;5004919;28;20488;-40
2022/04/09 10:43:21;;;;;;;;;;;;;;;2.51;100.00;98480.09;4998690;28;19913;-40
2022/04/09 10:46:02;;;;;;;;;;;;;;;2.53;100.00;98462.28;4997689;28;19928;-40
2022/04/09 10:48:31;;;;;;;;;;;;;;;2.65;97.45;98457.09;5005529;28;20006;-40
2022/04/09 10:51:06;;;;;;;;;;;;;;;3.10;88.43;98444.75;5007132;28;19971;-40
2022/04/09 10:53:32;;;;;;;;;;;;;;;3.68;85.00;98449.16;5003120;28;19918;-40
2022/04/09 10:56:17;;;;;;;;;;;;;;;4.06;84.15;98450.34;5001004;28;19922;-41
2022/04/09 10:59:01;;;;;;;;;;;;;;;4.54;87.65;98455.56;5005958;28;19922;-42
2022/04/09 11:04:37;;;;;;;;;;;;;;;6.05;89.09;98453.47;5002255;28;19932;-42
2022/04/09 11:07:05;;;;;;;;;;;;;;;6.19;92.48;98460.84;5000849;28;19944;-42
2022/04/09 11:09:39;;;;;;;;;;;;;;;5.83;95.37;98470.13;5000169;28;19928;-42
2022/04/09 11:12:04;;;;;;;;;;;;;;;6.03;90.91;98456.94;5000635;28;19944;-42
2022/04/09 11:14:29;;;;;;;;;;;;;;;5.92;94.73;98461.44;5001593;28;19964;-42
2022/04/09 11:16:55;;;;;;;;;;;;;;;6.51;95.41;98454.13;5001982;28;19918;-43
2022/04/09 11:19:20;;;;;;;;;;;;;;;6.42;99.64;98454.34;5001052;28;19922;-42
2022/04/09 11:21:49;;;;;;;;;;;;;;;6.53;100.00;98449.81;5001142;28;20561;-43
2022/04/09 11:24:14;;;;;;;;;;;;;;;7.11;98.00;98445.75;4999366;28;19925;-42
2022/04/09 11:26:40;;;;;;;;;;;;;;;7.86;95.33;98450.47;5001817;28;20013;-43
2022/04/09 11:29:11;;;;;;;;;;;;;;;7.18;100.00;98451.53;5001369;28;19932;-41
2022/04/09 11:31:47;;;;;;;;;;;;;;;6.89;100.00;98480.50;5000885;28;19926;-42
2022/04/09 11:34:12;;;;;;;;;;;;;;;3.83;100.00;98523.69;5001226;28;20016;-42
2022/04/09 11:36:37;;;;;;;;;;;;;;;3.54;83.88;98527.44;5002054;28;20475;-42
2022/04/09 11:39:02;;;;;;;;;;;;;;;3.44;71.22;98538.56;5001634;28;20395;-41
2022/04/09 11:41:28;;;;;;;;;;;;;;;3.97;29.83;98577.88;4999668;28;20329;-41
2022/04/09 11:43:54;;;;;;;;;;;;;;;4.25;41.10;98577.50;5001598;28;19921;-43
2022/04/09 11:46:20;;;;;;;;;;;;;;;4.68;46.81;98576.91;5000468;28;19948;-43
2022/04/09 11:48:48;;;;;;;;;;;;;;;4.89;53.82;98576.56;5001460;28;19922;-42
2022/04/09 11:51:17;;;;;;;;;;;;;;;5.17;57.15;98571.00;4995499;28;19950;-43
2022/04/09 11:53:42;;;;;;;;;;;;;;;5.00;61.18;98567.03;4996323;28;20208;-43
2022/04/09 11:56:07;;;;;;;;;;;;;;;5.60;65.57;98563.41;4999934;28;19921;-42
2022/04/09 11:58:33;;;;;;;;;;;;;;;6.79;73.53;98559.19;5000339;28;19979;-43
2022/04/09 12:00:59;;;;;;;;;;;;;;;6.46;88.09;98550.59;5000042;28;19927;-42
2022/04/09 12:03:24;;;;;;;;;;;;;;;6.43;97.61;98540.41;5000730;28;20040;-42
2022/04/09 12:05:51;;;;;;;;;;;;;;;6.51;100.00;98535.97;4998594;28;19926;-44
2022/04/09 12:08:23;;;;;;;;;;;;;;;6.54;100.00;98541.00;4998059;28;20950;-43
2022/04/09 12:10:57;;;;;;;;;;;;;;;7.16;100.00;98535.28;4981563;28;20494;-43
2022/04/09 12:13:45;;;;;;;;;;;;;;;7.52;100.00;98536.00;5000291;28;19925;-44
2022/04/09 12:16:10;;;;;;;;;;;;;;;7.63;100.00;98540.00;5000619;28;20364;-43
2022/04/09 12:18:36;;;;;;;;;;;;;;;6.62;100.00;98538.31;5000637;28;19963;-44
2022/04/09 12:21:20;;;;;;;;;;;;;;;7.30;100.00;98532.34;5001154;28;19971;-44
2022/04/09 12:23:46;;;;;;;;;;;;;;;6.65;100.00;98544.16;5000670;28;19974;-43
2022/04/09 12:26:20;;;;;;;;;;;;;;;6.91;100.00;98551.25;5001365;28;21235;-43
2022/04/09 12:28:46;;;;;;;;;;;;;;;6.94;100.00;98563.13;5001594;28;19967;-44
2022/04/09 12:31:23;;;;;;;;;;;;;;;7.06;100.00;98550.00;4999136;28;19953;-43
2022/04/09 12:33:57;;;;;;;;;;;;;;;6.80;100.00;98544.72;4999430;28;19922;-43
2022/04/09 12:36:23;;;;;;;;;;;;;;;6.79;100.00;98555.81;5000141;28;20077;-44
2022/04/09 12:38:48;;;;;;;;;;;;;;;6.94;100.00;98565.69;4998923;28;20020;-45
2022/04/09 12:41:13;;;;;;;;;;;;;;;6.76;100.00;98556.72;4999698;28;20060;-43
2022/04/09 12:43:40;;;;;;;;;;;;;;;6.58;100.00;98555.44;4999846;28;20008;-45
2022/04/09 12:46:14;;;;;;;;;;;;;;;6.63;100.00;98560.44;4999843;28;19925;-44
2022/04/09 12:48:43;;;;;;;;;;;;;;;6.05;100.00;98598.34;5000199;28;19925;-44